メインページ
METAR-TAF:

METAR-TAF

空港 :

ストックホルム・アーランダ, スウェーデン

ストックホルム・アーランダ空港

緯度: 59-39N, 経度: 017-57E, 海抜: 38m

現時点の気象観測

当レポートは34分前の05:20(UTC)に作成
の風 10kt
気温 14°C
湿度 82%
気圧 1010 hPa
視程10km以上
1,500メートル以下は雲なし、積乱雲なし

METAR: ESSA 200520Z 19010KT CAVOK 14/11 Q1010 NOSIG

時間: 07:54 (05:54 UTC)

予報

当レポートは24分前の05:30(UTC)に作成
予報は20日の 06時(UTC)から 21日の 06時(UTC)まで有効
南/南西の風 10kt
視程10km以上
高度1500ftの雲はほとんどない
20日の 21時(UTC)から 20日の 24時(UTC)まで徐々に
変向風 2kt
確率 40%
21日の 01時(UTC)から 21日の 05時(UTC)まで
視程: 4000m

TAF: ESSA 200530Z 2006/2106 20010KT 9999 FEW015 BECMG 2021/2024 VRB02KT PROB40 2101/2105 4000 BR

4,000以上の空港の気象観測と天気予報(METAR報とTAF報)

利用可能な観測所は地図上に黄色い丸と赤い丸で示す。

丸の上にカーソルを重ねると観測所名を参照できる。

次にクリックすると気象観測と天気予報を参照できる。

マップの切り替え:黒色「×」印の緑ボタンをクリックして拡大、「-」印の緑ボタンをクリックして縮小、緑色の三角印をクリックして隣りの地図に切り替え


METAR-TAF: